createdAt,value
2019-01-20T00:00:26.664Z,49.03
2019-01-20T00:02:58.091Z,45.23
2019-01-20T00:05:29.748Z,46.47
2019-01-20T00:08:00.868Z,47.93
2019-01-20T00:10:31.991Z,50.87
2019-01-20T00:13:03.141Z,47.70
2019-01-20T00:15:35.372Z,44.17
2019-01-20T00:18:06.559Z,45.67
2019-01-20T00:20:37.634Z,43.87
2019-01-20T00:23:08.864Z,48.93
2019-01-20T00:25:40.007Z,43.53
2019-01-20T00:28:11.258Z,44.97
2019-01-20T00:30:42.355Z,49.93
2019-01-20T00:33:13.632Z,49.50
2019-01-20T00:35:48.647Z,44.77
2019-01-20T00:38:21.383Z,43.90
2019-01-20T00:40:52.447Z,46.07
2019-01-20T00:43:23.518Z,45.70
2019-01-20T00:45:54.714Z,47.00
2019-01-20T00:48:26.028Z,49.70
2019-01-20T00:50:57.269Z,46.13
2019-01-20T00:53:28.435Z,48.00
2019-01-20T00:55:59.662Z,45.17
2019-01-20T00:58:30.820Z,46.43
2019-01-20T01:01:01.954Z,48.87
2019-01-20T01:03:33.263Z,43.07
2019-01-20T01:06:04.693Z,42.03
2019-01-20T01:08:35.956Z,43.27
2019-01-20T01:11:07.122Z,41.07
2019-01-20T01:13:39.316Z,46.07
2019-01-20T01:16:10.488Z,41.83
2019-01-20T01:18:42.657Z,46.03
2019-01-20T01:21:13.841Z,48.97
2019-01-20T01:23:44.929Z,48.23
2019-01-20T01:26:16.105Z,43.97
2019-01-20T01:28:47.334Z,43.70
2019-01-20T01:31:18.550Z,45.73
2019-01-20T01:33:49.660Z,48.17
2019-01-20T01:36:20.882Z,45.47
2019-01-20T01:38:51.952Z,43.93
2019-01-20T01:41:23.084Z,45.53
2019-01-20T01:44:11.882Z,46.30
2019-01-20T01:46:59.962Z,44.73
2019-01-20T01:49:32.635Z,47.97
2019-01-20T01:52:03.837Z,52.00
2019-01-20T01:54:34.998Z,49.63
2019-01-20T01:57:06.174Z,44.37
2019-01-20T01:59:37.365Z,47.63
2019-01-20T02:02:08.617Z,52.87
2019-01-20T02:04:39.796Z,52.43
2019-01-20T02:07:10.964Z,53.63
2019-01-20T02:09:42.095Z,49.77
2019-01-20T02:12:13.274Z,53.63
2019-01-20T02:14:44.454Z,52.10
2019-01-20T02:17:15.763Z,57.10
2019-01-20T02:19:47.967Z,52.77
2019-01-20T02:22:20.189Z,51.67
2019-01-20T02:24:51.230Z,48.10
2019-01-20T02:27:22.342Z,48.97
2019-01-20T02:29:53.440Z,49.73
2019-01-20T02:32:24.511Z,48.27
2019-01-20T02:34:55.633Z,58.50
2019-01-20T02:37:26.728Z,57.27
2019-01-20T02:39:57.915Z,52.50
2019-01-20T02:42:29.041Z,54.47
2019-01-20T02:45:00.432Z,58.40
2019-01-20T02:47:31.616Z,55.43
2019-01-20T02:50:02.654Z,52.80
2019-01-20T02:52:33.821Z,54.87
2019-01-20T02:55:05.230Z,51.73
2019-01-20T02:57:36.337Z,52.57
2019-01-20T03:00:11.348Z,56.07
2019-01-20T03:02:43.387Z,54.43
2019-01-20T03:05:14.609Z,56.93
2019-01-20T03:07:45.750Z,58.87
2019-01-20T03:10:18.120Z,58.27
2019-01-20T03:12:49.192Z,58.83
2019-01-20T03:15:20.392Z,59.57
2019-01-20T03:17:51.460Z,55.63
2019-01-20T03:20:24.083Z,52.30
2019-01-20T03:22:55.138Z,56.53
2019-01-20T03:25:26.313Z,59.90
2019-01-20T03:27:57.526Z,62.93
2019-01-20T03:30:28.679Z,57.23
2019-01-20T03:32:59.752Z,55.83
2019-01-20T03:35:30.915Z,58.43
2019-01-20T03:38:01.964Z,53.73
2019-01-20T03:40:33.017Z,54.63
2019-01-20T03:43:04.245Z,58.63
2019-01-20T03:45:35.326Z,58.57
2019-01-20T03:48:06.484Z,59.63
2019-01-20T03:50:37.592Z,60.10
2019-01-20T03:53:08.649Z,61.37
2019-01-20T03:55:39.846Z,66.07
2019-01-20T03:58:10.887Z,68.23
2019-01-20T04:00:42.060Z,60.43
2019-01-20T04:03:13.153Z,66.93
2019-01-20T04:05:44.220Z,63.10
2019-01-20T04:08:15.318Z,58.43
2019-01-20T04:10:46.407Z,54.03
2019-01-20T04:13:17.589Z,51.57
2019-01-20T04:15:48.668Z,54.30
2019-01-20T04:18:19.739Z,56.07
2019-01-20T04:20:50.900Z,55.03
2019-01-20T04:23:22.042Z,55.43
2019-01-20T04:25:53.098Z,50.33
2019-01-20T04:28:24.193Z,59.03
2019-01-20T04:30:55.297Z,57.07
2019-01-20T04:33:26.375Z,63.17
2019-01-20T04:35:57.495Z,62.13
2019-01-20T04:38:28.588Z,61.23
2019-01-20T04:40:59.674Z,57.03
2019-01-20T04:43:30.715Z,56.30
2019-01-20T04:46:02.848Z,56.70
2019-01-20T04:48:41.036Z,52.13
2019-01-20T04:51:12.288Z,48.80
2019-01-20T04:53:43.731Z,53.20
2019-01-20T04:56:14.764Z,58.67
2019-01-20T04:58:45.917Z,56.10
2019-01-20T05:01:16.986Z,53.93
2019-01-20T05:03:48.122Z,57.23
2019-01-20T05:06:19.182Z,51.17
2019-01-20T05:08:50.290Z,52.27
2019-01-20T05:11:21.365Z,62.30
2019-01-20T05:13:52.418Z,62.07
2019-01-20T05:16:36.220Z,60.50
2019-01-20T05:19:07.335Z,59.80
2019-01-20T05:21:38.398Z,59.40
2019-01-20T05:24:09.502Z,67.73
2019-01-20T05:26:40.537Z,67.40
2019-01-20T05:29:11.594Z,67.53
2019-01-20T05:31:42.645Z,75.50
2019-01-20T05:34:13.789Z,84.40
2019-01-20T05:36:44.863Z,74.27
2019-01-20T05:39:15.971Z,63.90
2019-01-20T05:41:47.007Z,61.07
2019-01-20T05:44:18.105Z,62.60
2019-01-20T05:46:49.145Z,62.83
2019-01-20T05:49:20.273Z,64.93
2019-01-20T05:51:51.347Z,66.10
2019-01-20T05:54:22.425Z,62.67
2019-01-20T05:56:53.479Z,63.83
2019-01-20T05:59:24.576Z,61.83
2019-01-20T06:01:55.696Z,63.83
2019-01-20T06:04:26.768Z,67.33
2019-01-20T06:06:57.850Z,76.43
2019-01-20T06:09:28.874Z,71.03
2019-01-20T06:12:00.050Z,70.23
2019-01-20T06:14:31.147Z,70.33
2019-01-20T06:17:02.260Z,75.93
2019-01-20T06:19:45.311Z,78.87
2019-01-20T06:22:16.398Z,72.33
2019-01-20T06:24:47.573Z,66.80
2019-01-20T06:27:18.691Z,66.77
2019-01-20T06:29:50.995Z,66.23
2019-01-20T06:32:22.181Z,66.20
2019-01-20T06:34:53.259Z,62.53
2019-01-20T06:37:24.318Z,64.50
2019-01-20T06:39:55.510Z,70.63
2019-01-20T06:42:26.498Z,63.97
2019-01-20T06:44:57.593Z,61.73
2019-01-20T06:47:28.701Z,64.60
2019-01-20T06:49:59.833Z,72.13
2019-01-20T06:52:31.008Z,70.03
2019-01-20T06:55:02.116Z,63.77
2019-01-20T06:57:33.340Z,64.40
2019-01-20T07:00:05.914Z,65.03
2019-01-20T07:02:36.969Z,67.67
2019-01-20T07:05:08.638Z,65.47
2019-01-20T07:07:39.808Z,66.67
2019-01-20T07:10:11.606Z,69.17
2019-01-20T07:12:42.723Z,66.90
2019-01-20T07:15:16.394Z,72.57
2019-01-20T07:17:48.569Z,75.57
2019-01-20T07:20:19.652Z,71.53
2019-01-20T07:22:50.746Z,74.37
2019-01-20T07:25:21.969Z,81.57
2019-01-20T07:27:53.041Z,71.33
2019-01-20T07:30:24.756Z,69.37
2019-01-20T07:32:55.896Z,73.23
2019-01-20T07:35:27.059Z,73.43
2019-01-20T07:37:58.158Z,80.50
2019-01-20T07:40:29.381Z,75.67
2019-01-20T07:43:00.473Z,72.27
2019-01-20T07:45:31.541Z,75.13
2019-01-20T07:48:02.615Z,77.13
2019-01-20T07:50:33.734Z,84.13
2019-01-20T07:53:04.908Z,79.90
2019-01-20T07:55:36.068Z,88.60
2019-01-20T07:58:07.210Z,92.57
2019-01-20T08:00:41.508Z,100.60
2019-01-20T08:03:13.509Z,98.20
2019-01-20T08:05:45.238Z,95.43
2019-01-20T08:08:16.605Z,100.03
2019-01-20T08:10:47.917Z,101.77
2019-01-20T08:13:28.724Z,97.93
2019-01-20T08:16:23.071Z,97.10
2019-01-20T08:19:04.585Z,96.20
2019-01-20T08:21:38.213Z,103.20
2019-01-20T08:24:14.439Z,98.17
2019-01-20T08:26:59.404Z,102.07
2019-01-20T08:29:57.747Z,98.97
2019-01-20T08:32:40.921Z,105.83
2019-01-20T08:35:20.759Z,111.40
2019-01-20T08:37:54.473Z,114.10
2019-01-20T08:40:35.528Z,122.87
2019-01-20T08:43:13.145Z,113.13
2019-01-20T08:46:42.007Z,117.57
2019-01-20T08:49:22.327Z,107.97
2019-01-20T08:51:59.507Z,112.57
2019-01-20T08:54:39.161Z,110.50
2019-01-20T08:57:14.022Z,119.77
2019-01-20T08:59:54.887Z,119.40
2019-01-20T09:02:31.059Z,119.17
2019-01-20T09:05:07.295Z,117.60
2019-01-20T09:07:59.234Z,123.23
2019-01-20T09:10:40.256Z,121.73
2019-01-20T09:13:13.592Z,108.43
2019-01-20T09:15:50.105Z,119.63
2019-01-20T09:18:29.939Z,123.13
2019-01-20T09:21:08.826Z,119.10
2019-01-20T09:23:50.207Z,123.77
2019-01-20T09:26:33.885Z,123.77
2019-01-20T09:29:08.810Z,126.23
2019-01-20T09:31:51.777Z,128.43
2019-01-20T09:34:28.709Z,133.87
2019-01-20T09:37:05.334Z,136.13
2019-01-20T09:39:37.497Z,135.60
2019-01-20T09:42:11.373Z,137.57
2019-01-20T09:44:42.675Z,140.70
2019-01-20T09:47:13.996Z,140.47
2019-01-20T09:49:45.318Z,140.67
2019-01-20T09:52:16.384Z,140.00
2019-01-20T09:54:47.963Z,138.97
2019-01-20T09:57:19.220Z,132.70
2019-01-20T09:59:50.360Z,138.13
2019-01-20T10:02:21.497Z,134.30
2019-01-20T10:04:52.721Z,133.90
2019-01-20T10:07:24.005Z,137.37
2019-01-20T10:09:55.334Z,132.60
2019-01-20T10:12:38.106Z,134.20
2019-01-20T10:15:10.734Z,127.97
2019-01-20T10:17:41.881Z,130.40
2019-01-20T10:20:16.318Z,130.07
2019-01-20T10:22:47.638Z,130.27
2019-01-20T10:25:18.937Z,131.13
2019-01-20T10:27:50.098Z,129.33
2019-01-20T10:30:35.763Z,131.23
2019-01-20T10:33:07.113Z,127.33
2019-01-20T10:35:44.377Z,127.53
2019-01-20T10:38:15.524Z,125.37
2019-01-20T10:40:46.640Z,128.20
2019-01-20T10:43:18.089Z,122.60
2019-01-20T10:45:49.291Z,121.67
2019-01-20T10:48:20.445Z,130.23
2019-01-20T10:50:51.560Z,128.37
2019-01-20T10:53:22.816Z,127.73
2019-01-20T10:55:53.935Z,126.27
2019-01-20T10:58:25.253Z,124.30
2019-01-20T11:00:56.405Z,121.00
2019-01-20T11:03:27.559Z,121.37
2019-01-20T11:05:58.675Z,131.03
2019-01-20T11:08:29.858Z,125.10
2019-01-20T11:11:00.984Z,125.73
2019-01-20T11:13:32.251Z,126.10
2019-01-20T11:16:03.362Z,118.87
2019-01-20T11:18:34.475Z,115.87
2019-01-20T11:21:05.796Z,118.00
2019-01-20T11:23:37.066Z,110.77
2019-01-20T11:26:08.275Z,112.13
2019-01-20T11:28:39.522Z,112.30
2019-01-20T11:31:10.900Z,103.23
2019-01-20T11:33:42.100Z,98.33
2019-01-20T11:36:13.382Z,103.93
2019-01-20T11:38:44.597Z,108.90
2019-01-20T11:41:16.134Z,112.50
2019-01-20T11:43:47.549Z,117.30
2019-01-20T11:46:18.744Z,116.47
2019-01-20T11:48:50.229Z,104.07
2019-01-20T11:51:21.515Z,106.30
2019-01-20T11:53:52.747Z,100.70
2019-01-20T11:56:23.991Z,90.13
2019-01-20T11:58:55.264Z,84.57
2019-01-20T12:01:26.571Z,85.60
2019-01-20T12:03:57.876Z,86.97
2019-01-20T12:06:29.054Z,86.17
2019-01-20T12:09:00.237Z,96.87
2019-01-20T12:11:31.397Z,93.83
2019-01-20T12:14:02.539Z,93.47
2019-01-20T12:16:33.649Z,95.20
2019-01-20T12:19:04.804Z,92.07
2019-01-20T12:21:35.939Z,92.00
2019-01-20T12:24:07.163Z,88.77
2019-01-20T12:26:38.430Z,100.47
2019-01-20T12:29:09.647Z,92.43
2019-01-20T12:31:41.136Z,101.87
2019-01-20T12:34:12.342Z,92.40
2019-01-20T12:36:46.474Z,87.97
2019-01-20T12:39:17.582Z,87.50
2019-01-20T12:41:48.808Z,85.80
2019-01-20T12:44:19.990Z,88.70
2019-01-20T12:46:51.198Z,87.53
2019-01-20T12:49:22.515Z,90.30
2019-01-20T12:51:53.844Z,95.57
2019-01-20T12:54:25.095Z,89.73
2019-01-20T12:56:56.366Z,85.53
2019-01-20T12:59:27.628Z,88.07
2019-01-20T13:01:58.772Z,86.83
2019-01-20T13:04:30.017Z,91.63
2019-01-20T13:07:01.270Z,85.27
2019-01-20T13:09:32.576Z,87.13
2019-01-20T13:12:03.686Z,84.60
2019-01-20T13:14:38.941Z,86.83
2019-01-20T13:17:07.687Z,91.83
2019-01-20T13:19:39.043Z,94.47
2019-01-20T13:22:10.460Z,100.03
2019-01-20T13:24:41.570Z,96.77
2019-01-20T13:27:12.828Z,91.87
2019-01-20T13:29:43.963Z,84.73
2019-01-20T13:32:15.447Z,84.47
2019-01-20T13:34:46.684Z,80.23
2019-01-20T13:37:17.802Z,78.83
2019-01-20T13:39:49.079Z,78.23
2019-01-20T13:42:20.393Z,77.37
2019-01-20T13:44:51.586Z,78.03
2019-01-20T13:47:23.146Z,71.43
2019-01-20T13:49:54.544Z,67.10
2019-01-20T13:52:26.392Z,61.80
2019-01-20T13:54:57.923Z,58.87
2019-01-20T13:57:29.328Z,55.20
2019-01-20T14:00:00.612Z,53.77
2019-01-20T14:02:31.893Z,52.13
2019-01-20T14:05:03.202Z,51.57
2019-01-20T14:07:35.436Z,51.17
2019-01-20T14:10:09.309Z,50.27
2019-01-20T14:12:40.591Z,51.67
2019-01-20T14:15:14.072Z,57.27
2019-01-20T14:17:45.511Z,59.03
2019-01-20T14:20:19.760Z,61.07
2019-01-20T14:22:51.732Z,58.43
2019-01-20T14:25:24.485Z,59.83
2019-01-20T14:27:56.032Z,63.60
2019-01-20T14:30:29.615Z,60.90
2019-01-20T14:33:02.257Z,65.80
2019-01-20T14:35:35.181Z,60.33
2019-01-20T14:38:06.994Z,66.70
2019-01-20T14:40:38.714Z,63.97
2019-01-20T14:43:09.862Z,62.73
2019-01-20T14:45:41.107Z,65.37
2019-01-20T14:48:12.470Z,69.00
2019-01-20T14:50:43.810Z,66.70
2019-01-20T14:53:15.233Z,68.70
2019-01-20T14:55:46.513Z,68.23
2019-01-20T14:58:18.019Z,67.53
2019-01-20T15:00:49.189Z,67.73
2019-01-20T15:03:20.383Z,71.93
2019-01-20T15:05:51.441Z,70.67
2019-01-20T15:08:22.658Z,66.10
2019-01-20T15:10:53.877Z,65.17
2019-01-20T15:13:24.969Z,57.27
2019-01-20T15:15:56.124Z,62.07
2019-01-20T15:18:27.184Z,57.33
2019-01-20T15:20:58.345Z,62.93
2019-01-20T15:23:29.600Z,57.33
2019-01-20T15:26:00.754Z,63.43
2019-01-20T15:28:31.934Z,72.30
2019-01-20T15:31:03.301Z,72.47
2019-01-20T15:33:34.715Z,69.57
2019-01-20T15:36:05.965Z,71.70
2019-01-20T15:38:37.027Z,70.73
2019-01-20T15:41:08.304Z,73.00
2019-01-20T15:43:39.399Z,69.87
2019-01-20T15:46:10.595Z,64.90
2019-01-20T15:48:41.752Z,69.97
2019-01-20T15:51:13.020Z,80.17
2019-01-20T15:53:44.190Z,82.00
2019-01-20T15:56:15.325Z,74.43
2019-01-20T15:58:46.576Z,78.23
2019-01-20T16:01:17.879Z,78.73
2019-01-20T16:03:49.041Z,74.10
2019-01-20T16:06:20.166Z,96.57
2019-01-20T16:08:51.312Z,83.20
2019-01-20T16:11:22.529Z,87.73
2019-01-20T16:13:53.627Z,91.43
2019-01-20T16:16:24.844Z,98.07
2019-01-20T16:18:56.043Z,93.63
2019-01-20T16:21:27.261Z,111.63
2019-01-20T16:23:58.733Z,106.73
2019-01-20T16:26:29.913Z,110.73
2019-01-20T16:29:01.202Z,112.23
2019-01-20T16:31:39.650Z,114.53
2019-01-20T16:34:05.434Z,126.03
2019-01-20T16:36:36.653Z,111.37
2019-01-20T16:39:08.747Z,108.03
2019-01-20T16:41:40.879Z,98.20
2019-01-20T16:44:23.909Z,94.83
2019-01-20T16:46:56.030Z,95.83
2019-01-20T16:49:27.195Z,103.33
2019-01-20T16:51:58.433Z,103.13
2019-01-20T16:54:29.697Z,90.00
2019-01-20T16:57:00.876Z,89.83
2019-01-20T16:59:32.079Z,90.67
2019-01-20T17:02:03.502Z,87.57
2019-01-20T17:04:34.716Z,92.90
2019-01-20T17:07:07.483Z,91.70
2019-01-20T17:09:38.828Z,89.00
2019-01-20T17:12:10.041Z,88.03
2019-01-20T17:14:41.316Z,90.40
2019-01-20T17:17:12.528Z,84.77
2019-01-20T17:19:43.781Z,90.33
2019-01-20T17:22:14.899Z,88.23
2019-01-20T17:24:46.860Z,91.47
2019-01-20T17:27:18.583Z,85.10
2019-01-20T17:29:56.567Z,89.03
2019-01-20T17:32:27.759Z,86.07
2019-01-20T17:34:59.857Z,92.13
2019-01-20T17:37:32.940Z,92.00
2019-01-20T17:40:05.718Z,92.83
2019-01-20T17:42:37.378Z,88.03
2019-01-20T17:45:14.463Z,99.97
2019-01-20T17:47:49.127Z,94.77
2019-01-20T17:50:25.640Z,92.73
2019-01-20T17:53:01.283Z,90.87
2019-01-20T17:55:38.458Z,104.73
2019-01-20T17:58:12.593Z,96.07
2019-01-20T18:00:49.093Z,99.83
2019-01-20T18:03:30.083Z,93.47
2019-01-20T18:06:04.419Z,93.37
2019-01-20T18:08:38.130Z,89.60
2019-01-20T18:11:12.326Z,89.83
2019-01-20T18:13:46.170Z,84.73
2019-01-20T18:16:19.327Z,82.87
2019-01-20T18:18:53.428Z,87.43
2019-01-20T18:21:25.351Z,84.87
2019-01-20T18:24:26.249Z,88.47
2019-01-20T18:27:01.902Z,87.77
2019-01-20T18:29:36.865Z,88.57
2019-01-20T18:32:15.474Z,97.17
2019-01-20T18:34:43.388Z,100.03
2019-01-20T18:37:14.728Z,100.03
2019-01-20T18:39:46.067Z,91.87
2019-01-20T18:42:17.435Z,104.23
2019-01-20T18:44:59.129Z,96.13
2019-01-20T18:47:40.408Z,94.60
2019-01-20T18:50:25.097Z,101.23
2019-01-20T18:53:03.811Z,95.93
2019-01-20T18:55:53.367Z,102.50
2019-01-20T18:58:22.045Z,104.40
2019-01-20T19:00:58.342Z,99.87
2019-01-20T19:03:30.666Z,98.80
2019-01-20T19:06:08.663Z,98.50
2019-01-20T19:08:46.059Z,98.13
2019-01-20T19:11:23.782Z,97.97
2019-01-20T19:13:58.588Z,101.03
2019-01-20T19:16:36.107Z,101.53
2019-01-20T19:19:09.202Z,101.47
2019-01-20T19:21:41.781Z,99.40
2019-01-20T19:24:13.335Z,97.03
2019-01-20T19:26:44.988Z,99.73
2019-01-20T19:29:16.823Z,102.40
2019-01-20T19:31:48.512Z,104.07
2019-01-20T19:34:19.797Z,96.37
2019-01-20T19:36:51.168Z,100.33
2019-01-20T19:39:22.724Z,95.10
2019-01-20T19:41:54.053Z,102.93
2019-01-20T19:44:25.354Z,105.40
2019-01-20T19:46:56.858Z,104.77
2019-01-20T19:49:28.244Z,98.03
2019-01-20T19:51:59.693Z,99.20
2019-01-20T19:54:31.331Z,98.13
2019-01-20T19:57:03.053Z,134.20
2019-01-20T19:59:34.371Z,148.53
2019-01-20T20:02:05.894Z,136.43
2019-01-20T20:04:37.511Z,133.37
2019-01-20T20:07:09.011Z,135.30
2019-01-20T20:09:40.344Z,130.70
2019-01-20T20:12:11.641Z,117.60
2019-01-20T20:14:42.933Z,108.67
2019-01-20T20:17:14.291Z,104.47
2019-01-20T20:19:46.512Z,109.03
2019-01-20T20:22:30.514Z,114.33
2019-01-20T20:25:04.748Z,112.07
2019-01-20T20:27:39.058Z,116.37
2019-01-20T20:30:13.994Z,117.23
2019-01-20T20:32:45.405Z,107.20
2019-01-20T20:35:17.208Z,113.93
2019-01-20T20:37:48.831Z,114.73
2019-01-20T20:40:20.741Z,109.77
2019-01-20T20:42:52.076Z,127.30
2019-01-20T20:45:24.183Z,120.30
2019-01-20T20:47:55.741Z,117.80
2019-01-20T20:50:26.778Z,117.07
2019-01-20T20:52:58.252Z,111.17
2019-01-20T20:55:29.475Z,114.77
2019-01-20T20:58:00.743Z,111.33
2019-01-20T21:00:38.431Z,112.00
2019-01-20T21:03:19.462Z,117.13
2019-01-20T21:05:54.135Z,115.87
2019-01-20T21:08:31.126Z,122.90
2019-01-20T21:11:05.827Z,128.67
2019-01-20T21:13:37.123Z,127.00
2019-01-20T21:16:08.360Z,122.70
2019-01-20T21:18:39.847Z,116.77
2019-01-20T21:21:11.028Z,116.20
2019-01-20T21:23:42.214Z,110.33
2019-01-20T21:26:14.751Z,118.83
2019-01-20T21:28:57.631Z,111.23
2019-01-20T21:31:28.750Z,113.80
2019-01-20T21:34:00.106Z,114.23
2019-01-20T21:36:31.284Z,120.97
2019-01-20T21:39:03.093Z,122.80
2019-01-20T21:41:35.443Z,124.50
2019-01-20T21:44:06.784Z,118.77
2019-01-20T21:46:38.032Z,126.10
2019-01-20T21:49:09.177Z,128.50
2019-01-20T21:51:40.476Z,131.50
2019-01-20T21:54:11.609Z,130.63
2019-01-20T21:56:42.963Z,126.33
2019-01-20T21:59:15.218Z,127.37
2019-01-20T22:01:46.681Z,119.10
2019-01-20T22:04:18.084Z,122.23
2019-01-20T22:06:49.314Z,133.90
2019-01-20T22:09:22.416Z,136.40
2019-01-20T22:11:55.396Z,127.40
2019-01-20T22:14:27.118Z,121.03
2019-01-20T22:17:06.574Z,129.47
2019-01-20T22:19:38.418Z,119.27
2019-01-20T22:22:12.043Z,123.07
2019-01-20T22:24:43.370Z,135.80
2019-01-20T22:27:14.848Z,120.90
2019-01-20T22:29:46.086Z,118.60
2019-01-20T22:32:17.441Z,124.13
2019-01-20T22:34:48.744Z,134.53
2019-01-20T22:37:19.940Z,123.47
2019-01-20T22:39:51.012Z,125.53
2019-01-20T22:42:22.182Z,129.10
2019-01-20T22:44:53.281Z,122.20
2019-01-20T22:47:24.482Z,121.07
2019-01-20T22:49:55.568Z,127.30
2019-01-20T22:52:26.702Z,127.97
2019-01-20T22:54:57.872Z,139.20
2019-01-20T22:57:29.002Z,125.27
2019-01-20T23:00:00.191Z,127.43
2019-01-20T23:02:31.247Z,123.10
2019-01-20T23:05:02.366Z,125.53
2019-01-20T23:07:33.527Z,124.97
2019-01-20T23:10:05.170Z,120.23
2019-01-20T23:12:36.254Z,119.00
2019-01-20T23:15:08.101Z,118.43
2019-01-20T23:17:39.247Z,129.37
2019-01-20T23:20:12.201Z,136.23
2019-01-20T23:22:43.512Z,122.00
2019-01-20T23:25:15.139Z,125.83
2019-01-20T23:27:46.349Z,117.73
2019-01-20T23:30:18.840Z,127.90
2019-01-20T23:32:49.925Z,123.87
2019-01-20T23:35:20.965Z,131.77
2019-01-20T23:37:52.074Z,124.27
2019-01-20T23:40:24.217Z,122.47
2019-01-20T23:42:56.120Z,116.90
2019-01-20T23:45:27.233Z,118.33
2019-01-20T23:47:59.065Z,132.10
2019-01-20T23:50:30.140Z,119.20
2019-01-20T23:53:01.220Z,115.53
2019-01-20T23:55:32.317Z,115.27
2019-01-20T23:58:03.403Z,118.10
